createdAt,value
2022-09-14T00:01:51.673Z,11.07
2022-09-14T00:04:21.186Z,11.30
2022-09-14T00:07:13.558Z,11.40
2022-09-14T00:09:41.749Z,11.60
2022-09-14T00:12:10.274Z,10.93
2022-09-14T00:14:39.811Z,11.30
2022-09-14T00:17:09.177Z,11.90
2022-09-14T00:19:37.202Z,11.73
2022-09-14T00:22:06.696Z,12.83
2022-09-14T00:24:35.170Z,12.53
2022-09-14T00:27:03.684Z,12.40
2022-09-14T00:29:33.385Z,11.80
2022-09-14T00:32:01.450Z,11.30
2022-09-14T00:34:31.091Z,11.87
2022-09-14T00:36:59.051Z,10.73
2022-09-14T00:39:28.163Z,10.73
2022-09-14T00:41:56.155Z,9.93
2022-09-14T00:45:02.977Z,11.47
2022-09-14T00:47:32.772Z,11.30
2022-09-14T00:50:04.304Z,11.57
2022-09-14T00:52:33.914Z,10.40
2022-09-14T00:55:04.829Z,10.27
2022-09-14T00:57:36.791Z,9.90
2022-09-14T01:00:06.990Z,9.40
2022-09-14T01:02:35.665Z,10.20
2022-09-14T01:05:05.927Z,9.30
2022-09-14T01:07:55.727Z,9.30
2022-09-14T01:10:34.729Z,9.37
2022-09-14T01:13:10.128Z,9.57
2022-09-14T01:15:47.637Z,8.80
2022-09-14T01:18:18.383Z,8.83
2022-09-14T01:20:54.340Z,10.13
2022-09-14T01:23:28.637Z,9.83
2022-09-14T01:26:36.068Z,10.07
2022-09-14T01:29:08.741Z,9.60
2022-09-14T01:31:39.931Z,9.93
2022-09-14T01:34:11.483Z,9.90
2022-09-14T01:36:41.148Z,9.57
2022-09-14T01:39:09.498Z,10.70
2022-09-14T01:41:38.234Z,10.80
2022-09-14T01:44:11.910Z,10.70
2022-09-14T01:46:43.046Z,10.17
2022-09-14T01:49:14.343Z,10.87
2022-09-14T01:51:45.448Z,11.33
2022-09-14T01:54:17.637Z,11.30
2022-09-14T01:56:51.104Z,10.77
2022-09-14T01:59:22.357Z,11.23
2022-09-14T02:01:52.281Z,10.77
2022-09-14T02:04:26.691Z,10.97
2022-09-14T02:06:56.486Z,11.07
2022-09-14T02:09:26.842Z,10.70
2022-09-14T02:12:00.491Z,9.50
2022-09-14T02:14:30.273Z,9.80
2022-09-14T02:16:58.354Z,11.17
2022-09-14T02:19:27.862Z,10.80
2022-09-14T02:21:56.116Z,10.57
2022-09-14T02:24:24.187Z,11.20
2022-09-14T02:26:53.346Z,10.73
2022-09-14T02:29:21.446Z,10.77
2022-09-14T02:31:59.181Z,11.23
2022-09-14T02:34:34.070Z,10.30
2022-09-14T02:37:07.590Z,11.60
2022-09-14T02:39:41.748Z,11.37
2022-09-14T02:42:19.063Z,10.80
2022-09-14T02:44:58.862Z,11.03
2022-09-14T02:47:31.876Z,10.23
2022-09-14T02:50:05.472Z,10.67
2022-09-14T02:52:35.457Z,10.47
2022-09-14T02:55:06.676Z,10.93
2022-09-14T02:57:34.874Z,10.17
2022-09-14T03:00:03.283Z,10.87
2022-09-14T03:02:32.683Z,9.87
2022-09-14T03:05:00.831Z,10.07
2022-09-14T03:07:28.875Z,10.20
2022-09-14T03:09:56.825Z,10.00
2022-09-14T03:12:24.867Z,11.20
2022-09-14T03:14:52.821Z,9.80
2022-09-14T03:17:20.794Z,9.77
2022-09-14T03:19:50.169Z,10.17
2022-09-14T03:22:18.142Z,10.00
2022-09-14T03:24:46.102Z,10.97
2022-09-14T03:27:14.131Z,10.47
2022-09-14T03:29:42.133Z,10.60
2022-09-14T03:32:10.975Z,10.00
2022-09-14T03:34:39.530Z,10.47
2022-09-14T03:37:08.866Z,10.00
2022-09-14T03:39:36.818Z,11.73
2022-09-14T03:42:04.948Z,10.97
2022-09-14T03:44:32.901Z,10.83
2022-09-14T03:47:01.051Z,11.30
2022-09-14T03:49:29.111Z,11.17
2022-09-14T03:51:59.774Z,10.17
2022-09-14T03:54:29.371Z,11.17
2022-09-14T03:56:57.353Z,10.30
2022-09-14T03:59:26.737Z,11.30
2022-09-14T04:01:54.820Z,10.87
2022-09-14T04:04:22.949Z,10.60
2022-09-14T04:06:50.919Z,11.73
2022-09-14T04:09:19.419Z,11.17
2022-09-14T04:11:48.991Z,11.20
2022-09-14T04:14:17.719Z,11.07
2022-09-14T04:16:45.730Z,11.80
2022-09-14T04:19:14.157Z,12.00
2022-09-14T04:21:42.269Z,11.60
2022-09-14T04:24:15.009Z,12.10
2022-09-14T04:26:44.367Z,11.30
2022-09-14T04:29:14.748Z,11.17
2022-09-14T04:31:43.027Z,12.13
2022-09-14T04:34:13.313Z,10.30
2022-09-14T04:36:41.475Z,11.37
2022-09-14T04:39:13.759Z,10.90
2022-09-14T04:41:42.178Z,11.30
2022-09-14T04:44:10.207Z,12.77
2022-09-14T04:46:46.133Z,12.30
2022-09-14T04:49:14.831Z,11.93
2022-09-14T04:51:42.893Z,11.33
2022-09-14T04:54:14.769Z,10.70
2022-09-14T04:56:42.958Z,11.87
2022-09-14T04:59:11.006Z,11.70
2022-09-14T05:01:42.463Z,11.60
2022-09-14T05:04:12.319Z,13.93
2022-09-14T05:06:41.909Z,11.10
2022-09-14T05:09:15.218Z,12.10
2022-09-14T05:11:44.026Z,12.70
2022-09-14T05:14:13.104Z,12.20
2022-09-14T05:16:43.687Z,11.00
2022-09-14T05:19:14.095Z,11.87
2022-09-14T05:21:42.094Z,11.70
2022-09-14T05:24:14.733Z,12.47
2022-09-14T05:26:43.587Z,12.77
2022-09-14T05:29:13.699Z,11.47
2022-09-14T05:31:43.266Z,12.67
2022-09-14T05:34:11.836Z,12.17
2022-09-14T05:36:40.429Z,12.50
2022-09-14T05:39:10.069Z,12.37
2022-09-14T05:41:38.548Z,13.03
2022-09-14T05:44:07.105Z,12.53
2022-09-14T05:46:35.451Z,11.23
2022-09-14T05:49:04.863Z,13.37
2022-09-14T05:51:33.220Z,12.43
2022-09-14T05:54:01.627Z,12.93
2022-09-14T05:56:31.726Z,12.57
2022-09-14T05:59:00.377Z,11.47
2022-09-14T06:01:31.085Z,11.97
2022-09-14T06:04:02.175Z,12.30
2022-09-14T06:06:32.775Z,12.30
2022-09-14T06:09:00.870Z,12.53
2022-09-14T06:11:30.469Z,13.27
2022-09-14T06:13:58.549Z,14.30
2022-09-14T06:16:28.440Z,12.43
2022-09-14T06:18:57.680Z,12.50
2022-09-14T06:21:29.461Z,12.80
2022-09-14T06:23:59.128Z,12.70
2022-09-14T06:26:28.079Z,10.80
2022-09-14T06:28:56.081Z,11.43
2022-09-14T06:31:25.292Z,12.37
2022-09-14T06:33:53.660Z,11.50
2022-09-14T06:36:23.514Z,11.57
2022-09-14T06:38:51.638Z,11.00
2022-09-14T06:41:22.848Z,11.33
2022-09-14T06:43:52.273Z,11.73
2022-09-14T06:46:22.024Z,12.77
2022-09-14T06:48:52.892Z,11.70
2022-09-14T06:51:23.151Z,9.47
2022-09-14T06:53:51.596Z,10.93
2022-09-14T06:56:21.691Z,11.13
2022-09-14T06:58:50.628Z,11.80
2022-09-14T07:01:20.493Z,10.90
2022-09-14T07:03:50.195Z,10.10
2022-09-14T07:06:21.035Z,10.20
2022-09-14T07:08:49.949Z,8.10
2022-09-14T07:11:19.638Z,8.97
2022-09-14T07:13:49.462Z,8.57
2022-09-14T07:16:17.500Z,11.67
2022-09-14T07:18:45.483Z,9.57
2022-09-14T07:21:15.030Z,9.20
2022-09-14T07:23:44.624Z,7.67
2022-09-14T07:26:14.972Z,7.67
2022-09-14T07:28:44.369Z,8.40
2022-09-14T07:31:19.169Z,8.10
2022-09-14T07:33:47.381Z,8.50
2022-09-14T07:36:16.437Z,8.50
2022-09-14T07:38:52.899Z,8.30
2022-09-14T07:41:21.745Z,8.10
2022-09-14T07:43:50.870Z,7.23
2022-09-14T07:46:20.744Z,8.20
2022-09-14T07:48:50.054Z,7.90
2022-09-14T07:51:18.119Z,8.10
2022-09-14T07:53:46.484Z,7.40
2022-09-14T07:56:16.751Z,8.40
2022-09-14T07:58:45.397Z,8.00
2022-09-14T08:01:15.406Z,8.13
2022-09-14T08:03:45.856Z,8.23
2022-09-14T08:06:15.502Z,7.97
2022-09-14T08:08:45.027Z,8.27
2022-09-14T08:11:14.494Z,7.97
2022-09-14T08:13:45.661Z,7.70
2022-09-14T08:16:14.172Z,6.70
2022-09-14T08:18:42.295Z,8.10
2022-09-14T08:21:13.324Z,7.27
2022-09-14T08:23:42.286Z,7.17
2022-09-14T08:26:12.308Z,6.67
2022-09-14T08:28:40.827Z,7.70
2022-09-14T08:31:10.749Z,8.10
2022-09-14T08:33:40.150Z,7.43
2022-09-14T08:36:09.747Z,7.07
2022-09-14T08:38:39.277Z,6.73
2022-09-14T08:41:13.676Z,6.63
2022-09-14T08:43:41.676Z,5.73
2022-09-14T08:46:13.594Z,7.50
2022-09-14T08:48:45.788Z,6.20
2022-09-14T08:51:13.748Z,6.70
2022-09-14T08:53:44.120Z,6.57
2022-09-14T08:56:15.709Z,15.70
2022-09-14T08:58:58.142Z,7.07
2022-09-14T09:01:36.035Z,6.40
2022-09-14T09:04:19.934Z,5.80
2022-09-14T09:06:51.293Z,5.70
2022-09-14T09:09:25.206Z,5.60
2022-09-14T09:11:54.600Z,5.20
2022-09-14T09:14:26.067Z,5.60
2022-09-14T09:16:58.866Z,6.33
2022-09-14T09:19:31.437Z,5.27
2022-09-14T09:22:01.199Z,5.73
2022-09-14T09:24:37.110Z,6.23
2022-09-14T09:27:11.058Z,5.47
2022-09-14T09:29:39.601Z,5.90
2022-09-14T09:32:15.183Z,5.73
2022-09-14T09:35:01.693Z,5.47
2022-09-14T09:37:59.035Z,5.30
2022-09-14T09:40:32.854Z,6.03
2022-09-14T09:43:06.174Z,5.60
2022-09-14T09:45:55.915Z,5.33
2022-09-14T09:48:29.681Z,5.20
2022-09-14T09:51:03.222Z,5.43
2022-09-14T09:53:32.799Z,5.77
2022-09-14T10:18:38.259Z,4.90
2022-09-14T10:22:39.118Z,4.83
2022-09-14T10:43:38.711Z,3.77
2022-09-14T11:00:30.632Z,3.60
2022-09-14T11:19:59.661Z,4.10
2022-09-14T11:22:34.296Z,3.60
2022-09-14T11:25:05.310Z,3.40
2022-09-14T11:27:36.465Z,3.40
2022-09-14T11:30:10.508Z,3.80
2022-09-14T11:32:41.694Z,3.87
2022-09-14T11:35:18.872Z,3.73
2022-09-14T11:37:50.437Z,3.50
2022-09-14T11:40:22.566Z,3.77
2022-09-14T11:42:56.240Z,3.43
2022-09-14T11:45:28.904Z,3.70
2022-09-14T11:48:02.866Z,3.90
2022-09-14T11:50:38.407Z,3.50
2022-09-14T11:53:12.306Z,3.50
2022-09-14T11:55:44.024Z,3.50
2022-09-14T11:58:19.227Z,3.40
2022-09-14T12:01:01.942Z,3.43
2022-09-14T12:04:03.455Z,3.60
2022-09-14T12:06:57.206Z,3.37
2022-09-14T12:09:42.076Z,3.33
2022-09-14T12:12:36.105Z,4.17
2022-09-14T12:15:20.397Z,3.80
2022-09-14T12:17:48.615Z,3.60
2022-09-14T12:20:32.451Z,3.47
2022-09-14T12:23:23.740Z,3.47
2022-09-14T12:26:27.742Z,3.43
2022-09-14T12:28:57.187Z,3.33
2022-09-14T12:31:38.631Z,3.23
2022-09-14T12:34:19.396Z,3.60
2022-09-14T12:37:28.517Z,3.33
2022-09-14T12:40:36.362Z,3.37
2022-09-14T12:43:52.440Z,3.50
2022-09-14T12:46:40.920Z,3.30
2022-09-14T12:49:27.429Z,3.00
2022-09-14T12:51:56.319Z,3.40
2022-09-14T12:54:29.278Z,3.30
2022-09-14T12:57:05.979Z,3.30
2022-09-14T12:59:42.907Z,3.27
2022-09-14T13:03:01.194Z,3.30
2022-09-14T13:05:31.168Z,3.50
2022-09-14T13:07:59.535Z,3.10
2022-09-14T13:10:32.014Z,3.10
2022-09-14T13:13:02.389Z,3.60
2022-09-14T13:15:33.891Z,3.40
2022-09-14T13:18:04.931Z,3.60
2022-09-14T13:20:35.208Z,3.30
2022-09-14T13:23:03.729Z,3.10
2022-09-14T13:25:34.496Z,3.30
2022-09-14T13:28:06.972Z,3.40
2022-09-14T13:30:36.212Z,3.30
2022-09-14T13:33:05.762Z,3.63
2022-09-14T13:35:35.882Z,3.30
2022-09-14T13:38:08.971Z,3.47
2022-09-14T13:40:37.221Z,3.20
2022-09-14T13:43:05.333Z,3.40
2022-09-14T13:45:34.034Z,3.30
2022-09-14T13:48:02.529Z,3.50
2022-09-14T13:50:32.194Z,3.80
2022-09-14T13:53:03.292Z,3.60
2022-09-14T13:55:43.902Z,3.50
2022-09-14T13:58:16.277Z,3.97
2022-09-14T14:00:50.420Z,3.60
2022-09-14T14:03:26.877Z,3.27
2022-09-14T14:05:56.379Z,3.80
2022-09-14T14:08:30.159Z,3.87
2022-09-14T14:10:58.726Z,3.90
2022-09-14T14:13:27.478Z,3.03
2022-09-14T14:15:56.214Z,3.70
2022-09-14T14:18:41.402Z,3.73
2022-09-14T14:21:17.899Z,3.63
2022-09-14T14:24:02.949Z,3.40
2022-09-14T14:26:59.559Z,3.80
2022-09-14T14:29:27.789Z,3.50
2022-09-14T14:31:56.463Z,3.40
2022-09-14T14:34:28.021Z,3.60
2022-09-14T14:36:57.632Z,3.87
2022-09-14T14:39:26.696Z,3.60
2022-09-14T14:41:55.065Z,4.20
2022-09-14T14:44:26.177Z,3.87
2022-09-14T14:46:54.177Z,3.90
2022-09-14T14:49:23.724Z,3.93
2022-09-14T14:51:52.141Z,3.57
2022-09-14T14:54:21.610Z,3.77
2022-09-14T14:56:51.269Z,3.63
2022-09-14T14:59:28.710Z,3.93
2022-09-14T15:01:57.134Z,4.00
2022-09-14T15:04:25.382Z,3.37
2022-09-14T15:06:53.929Z,3.90
2022-09-14T15:09:26.104Z,3.47
2022-09-14T15:11:55.219Z,3.40
2022-09-14T15:14:27.250Z,3.40
2022-09-14T15:17:00.428Z,3.30
2022-09-14T15:19:28.576Z,3.20
2022-09-14T15:22:01.151Z,3.87
2022-09-14T15:24:31.413Z,3.27
2022-09-14T15:26:59.885Z,3.00
2022-09-14T15:29:28.180Z,2.90
2022-09-14T15:31:56.404Z,3.00
2022-09-14T15:34:24.602Z,2.87
2022-09-14T15:36:54.436Z,3.00
2022-09-14T15:39:24.201Z,2.80
2022-09-14T15:41:53.890Z,2.90
2022-09-14T15:44:22.250Z,3.10
2022-09-14T15:46:50.756Z,3.13
2022-09-14T15:49:21.395Z,3.37
2022-09-14T15:51:51.109Z,3.30
2022-09-14T15:54:19.601Z,3.30
2022-09-14T15:56:50.173Z,3.40
2022-09-14T15:59:20.009Z,3.30
2022-09-14T16:01:48.571Z,3.13
2022-09-14T16:04:17.715Z,3.40
2022-09-14T16:06:46.209Z,3.10
2022-09-14T16:09:15.318Z,3.30
2022-09-14T16:11:43.600Z,4.00
2022-09-14T16:14:12.324Z,3.50
2022-09-14T16:16:41.978Z,3.73
2022-09-14T16:19:11.822Z,3.43
2022-09-14T16:21:40.742Z,3.47
2022-09-14T16:24:12.432Z,3.73
2022-09-14T16:26:40.749Z,3.63
2022-09-14T16:29:11.596Z,4.00
2022-09-14T16:31:42.317Z,4.30
2022-09-14T16:34:15.435Z,13.88
2022-09-14T16:36:44.040Z,5.73
2022-09-14T16:39:14.160Z,5.43
2022-09-14T16:41:42.847Z,5.13
2022-09-14T16:44:13.702Z,5.80
2022-09-14T16:46:43.463Z,5.30
2022-09-14T16:49:11.611Z,5.83
2022-09-14T16:51:39.691Z,5.70
2022-09-14T16:54:07.994Z,5.67
2022-09-14T16:56:38.037Z,5.40
2022-09-14T16:59:07.471Z,5.80
2022-09-14T17:01:37.227Z,4.83
2022-09-14T17:04:09.529Z,5.93
2022-09-14T17:06:39.044Z,5.60
2022-09-14T17:09:09.716Z,5.67
2022-09-14T17:11:39.039Z,6.23
2022-09-14T17:14:07.750Z,5.80
2022-09-14T17:16:35.861Z,6.17
2022-09-14T17:19:06.328Z,5.63
2022-09-14T17:21:36.948Z,5.30
2022-09-14T17:24:06.177Z,5.23
2022-09-14T17:26:34.871Z,5.37
2022-09-14T17:29:03.263Z,5.87
2022-09-14T17:31:32.827Z,5.37
2022-09-14T17:34:02.392Z,5.40
2022-09-14T17:36:32.120Z,5.90
2022-09-14T17:39:02.277Z,6.77
2022-09-14T17:41:31.679Z,6.27
2022-09-14T17:44:01.680Z,5.73
2022-09-14T17:46:30.393Z,5.90
2022-09-14T17:48:59.724Z,6.63
2022-09-14T17:51:29.688Z,5.50
2022-09-14T17:53:59.910Z,6.07
2022-09-14T17:56:29.783Z,5.60
2022-09-14T17:59:01.262Z,5.97
2022-09-14T18:01:29.828Z,14.13
2022-09-14T18:04:00.402Z,7.60
2022-09-14T18:06:30.592Z,6.30
2022-09-14T18:09:01.493Z,6.20
2022-09-14T18:11:30.085Z,6.27
2022-09-14T18:13:58.787Z,6.73
2022-09-14T18:16:27.780Z,6.07
2022-09-14T18:18:58.191Z,5.30
2022-09-14T18:21:26.429Z,6.10
2022-09-14T18:23:57.745Z,6.60
2022-09-14T18:26:27.219Z,6.17
2022-09-14T18:28:56.815Z,5.97
2022-09-14T18:31:25.201Z,6.10
2022-09-14T18:33:54.936Z,5.70
2022-09-14T18:36:23.402Z,6.40
2022-09-14T18:38:53.015Z,6.63
2022-09-14T18:41:21.971Z,5.60
2022-09-14T18:43:53.024Z,6.10
2022-09-14T18:46:25.746Z,6.10
2022-09-14T18:48:57.623Z,6.70
2022-09-14T18:51:26.207Z,6.93
2022-09-14T18:53:57.253Z,6.57
2022-09-14T18:56:25.459Z,5.87
2022-09-14T18:58:54.937Z,6.70
2022-09-14T19:01:23.190Z,6.40
2022-09-14T19:03:51.301Z,5.37
2022-09-14T19:06:20.102Z,6.00
2022-09-14T19:08:48.307Z,6.37
2022-09-14T19:11:18.604Z,5.97
2022-09-14T19:13:47.418Z,6.17
2022-09-14T19:16:18.759Z,6.10
2022-09-14T19:18:48.510Z,5.70
2022-09-14T19:21:22.772Z,5.70
2022-09-14T19:23:57.158Z,5.60
2022-09-14T19:26:25.320Z,5.90
2022-09-14T19:28:53.756Z,5.70
2022-09-14T19:31:24.514Z,5.80
2022-09-14T19:33:54.892Z,5.17
2022-09-14T19:36:24.950Z,5.30
2022-09-14T19:38:53.399Z,5.30
2022-09-14T19:41:22.517Z,5.00
2022-09-14T19:43:50.863Z,5.67
2022-09-14T19:46:20.704Z,5.60
2022-09-14T19:48:50.296Z,5.00
2022-09-14T19:51:19.893Z,5.50
2022-09-14T19:53:49.242Z,6.03
2022-09-14T19:56:19.478Z,5.70
2022-09-14T19:58:49.309Z,5.27
2022-09-14T20:01:18.675Z,5.50
2022-09-14T20:03:47.351Z,5.10
2022-09-14T20:06:21.219Z,7.20
2022-09-14T20:08:50.535Z,9.60
2022-09-14T20:11:23.359Z,8.40
2022-09-14T20:13:54.602Z,6.83
2022-09-14T20:16:24.059Z,6.60
2022-09-14T20:18:52.894Z,6.33
2022-09-14T20:21:23.799Z,6.00
2022-09-14T20:24:16.273Z,7.60
2022-09-14T20:26:45.323Z,6.57
2022-09-14T20:29:15.423Z,6.17
2022-09-14T20:31:44.225Z,6.40
2022-09-14T20:34:12.852Z,5.37
2022-09-14T20:36:42.381Z,6.20
2022-09-14T20:39:10.476Z,6.00
2022-09-14T20:41:39.701Z,6.00
2022-09-14T20:44:08.110Z,6.27
2022-09-14T20:46:38.656Z,5.40
2022-09-14T20:49:08.577Z,6.17
2022-09-14T20:51:37.218Z,5.00
2022-09-14T20:54:07.190Z,5.90
2022-09-14T20:56:36.665Z,5.80
2022-09-14T20:59:07.179Z,5.60
2022-09-14T21:01:38.081Z,5.23
2022-09-14T21:04:08.476Z,5.90
2022-09-14T21:06:37.918Z,6.00
2022-09-14T21:09:07.909Z,6.50
2022-09-14T21:11:36.207Z,6.23
2022-09-14T21:14:04.639Z,5.47
2022-09-14T21:16:35.227Z,5.63
2022-09-14T21:19:05.750Z,5.93
2022-09-14T21:21:34.061Z,5.33
2022-09-14T21:24:02.677Z,6.27
2022-09-14T21:26:34.090Z,5.93
2022-09-14T21:29:05.458Z,6.23
2022-09-14T21:31:34.873Z,6.17
2022-09-14T21:34:04.733Z,6.93
2022-09-14T21:36:34.699Z,5.90
2022-09-14T21:39:05.380Z,6.77
2022-09-14T21:41:34.857Z,6.20
2022-09-14T21:44:03.374Z,5.90
2022-09-14T21:46:31.780Z,6.30
2022-09-14T21:48:59.826Z,6.70
2022-09-14T21:51:29.685Z,5.60
2022-09-14T21:53:59.270Z,6.70
2022-09-14T21:56:30.034Z,6.93
2022-09-14T21:59:00.868Z,6.10
2022-09-14T22:01:29.714Z,7.27
2022-09-14T22:03:58.618Z,5.87
2022-09-14T22:06:28.254Z,7.00
2022-09-14T22:08:59.897Z,6.77
2022-09-14T22:11:30.393Z,6.10
2022-09-14T22:14:02.426Z,5.70
2022-09-14T22:16:32.970Z,6.33
2022-09-14T22:19:04.183Z,6.90
2022-09-14T22:21:33.718Z,7.03
2022-09-14T22:24:03.524Z,7.07
2022-09-14T22:26:33.958Z,6.03
2022-09-14T22:29:03.421Z,7.40
2022-09-14T22:31:32.918Z,6.83
2022-09-14T22:34:01.497Z,6.13
2022-09-14T22:36:29.459Z,6.00
2022-09-14T22:38:58.630Z,6.77
2022-09-14T22:41:27.705Z,6.20
2022-09-14T22:43:56.078Z,6.80
2022-09-14T22:46:26.099Z,6.07
2022-09-14T22:48:54.634Z,7.10
2022-09-14T22:51:24.540Z,7.23
2022-09-14T22:53:52.785Z,7.80
2022-09-14T22:56:22.664Z,6.13
2022-09-14T22:58:50.955Z,6.47
2022-09-14T23:01:22.037Z,6.63
2022-09-14T23:03:55.566Z,5.53
2022-09-14T23:06:27.019Z,6.13
2022-09-14T23:08:54.993Z,6.93
2022-09-14T23:11:22.952Z,5.77
2022-09-14T23:13:51.226Z,5.93
2022-09-14T23:16:20.801Z,6.83
2022-09-14T23:18:52.912Z,7.37
2022-09-14T23:21:21.194Z,5.97
2022-09-14T23:23:53.093Z,6.83
2022-09-14T23:26:21.523Z,5.97
2022-09-14T23:28:52.749Z,5.60
2022-09-14T23:31:21.739Z,6.70
2022-09-14T23:33:52.570Z,7.17
2022-09-14T23:36:22.130Z,5.83
2022-09-14T23:38:50.591Z,6.33
2022-09-14T23:41:20.233Z,7.27
2022-09-14T23:43:48.485Z,6.20
2022-09-14T23:46:17.232Z,7.30
2022-09-14T23:48:45.960Z,5.60
2022-09-14T23:51:15.553Z,6.67
2022-09-14T23:53:43.850Z,6.27
2022-09-14T23:56:12.179Z,5.70
2022-09-14T23:58:41.409Z,5.17
